createdAt,value
2022-11-13T00:01:16.000Z,275.19
2022-11-13T00:03:22.000Z,275.17
2022-11-13T00:04:49.000Z,275.19
2022-11-13T00:06:55.000Z,275.17
2022-11-13T00:08:25.000Z,275.19
2022-11-13T00:10:32.000Z,275.2
2022-11-13T00:13:23.000Z,275.2
2022-11-13T00:14:56.000Z,275.22
2022-11-13T00:17:02.000Z,275.22
2022-11-13T00:18:29.000Z,275.22
2022-11-13T00:20:35.000Z,275.2
2022-11-13T00:22:02.000Z,275.19
2022-11-13T00:24:08.000Z,275.19
2022-11-13T00:25:34.000Z,275.2
2022-11-13T00:27:41.000Z,275.2
2022-11-13T00:29:07.000Z,275.16
2022-11-13T00:31:13.000Z,275.15
2022-11-13T00:32:40.000Z,275.12
2022-11-13T00:34:46.000Z,275.1
2022-11-13T00:36:14.000Z,275.08
2022-11-13T00:38:20.000Z,275.08
2022-11-13T00:39:47.000Z,275.06
2022-11-13T00:41:53.000Z,275.08
2022-11-13T00:43:19.000Z,275.04
2022-11-13T00:45:25.000Z,275.05
2022-11-13T00:46:52.000Z,275.04
2022-11-13T00:48:58.000Z,275.04
2022-11-13T00:51:49.000Z,275.04
2022-11-13T00:53:15.000Z,275.01
2022-11-13T00:55:24.000Z,274.99
2022-11-13T00:56:50.000Z,274.98
2022-11-13T00:58:56.000Z,274.95
2022-11-13T01:00:23.000Z,274.92
2022-11-13T01:02:29.000Z,274.92
2022-11-13T01:03:55.000Z,274.87
2022-11-13T01:06:02.000Z,274.84
2022-11-13T01:07:28.000Z,274.83
2022-11-13T01:09:34.000Z,274.8
2022-11-13T01:11:01.000Z,274.77
2022-11-13T01:13:07.000Z,274.73
2022-11-13T01:14:33.000Z,274.72
2022-11-13T01:16:39.000Z,274.68
2022-11-13T01:18:06.000Z,274.65
2022-11-13T01:20:12.000Z,274.64
2022-11-13T01:21:38.000Z,274.62
2022-11-13T01:23:45.000Z,274.61
2022-11-13T01:25:11.000Z,274.59
2022-11-13T01:27:17.000Z,274.58
2022-11-13T01:30:09.000Z,274.56
2022-11-13T01:31:35.000Z,274.53
2022-11-13T01:33:41.000Z,274.53
2022-11-13T01:35:08.000Z,274.54
2022-11-13T01:37:14.000Z,274.51
2022-11-13T01:38:40.000Z,274.51
2022-11-13T01:40:46.000Z,274.5
2022-11-13T01:42:13.000Z,274.49
2022-11-13T01:44:19.000Z,274.47
2022-11-13T01:45:45.000Z,274.46
2022-11-13T01:47:52.000Z,274.46
2022-11-13T01:49:18.000Z,274.47
2022-11-13T01:51:24.000Z,274.46
2022-11-13T01:52:51.000Z,274.44
2022-11-13T01:54:57.000Z,274.46
2022-11-13T01:56:23.000Z,274.44
2022-11-13T01:58:30.000Z,274.47
2022-11-13T01:59:57.000Z,274.49
2022-11-13T02:02:03.000Z,274.49
2022-11-13T02:03:29.000Z,274.5
2022-11-13T02:05:35.000Z,274.49
2022-11-13T02:08:27.000Z,274.5
2022-11-13T02:09:54.000Z,274.5
2022-11-13T02:12:00.000Z,274.53
2022-11-13T02:13:26.000Z,274.54
2022-11-13T02:15:32.000Z,274.56
2022-11-13T02:16:59.000Z,274.54
2022-11-13T02:19:05.000Z,274.56
2022-11-13T02:20:31.000Z,274.56
2022-11-13T02:22:38.000Z,274.58
2022-11-13T02:24:04.000Z,274.56
2022-11-13T02:26:10.000Z,274.51
2022-11-13T02:27:37.000Z,274.51
2022-11-13T02:29:43.000Z,274.51
2022-11-13T02:31:09.000Z,274.47
2022-11-13T02:33:15.000Z,274.47
2022-11-13T02:34:42.000Z,274.49
2022-11-13T02:36:48.000Z,274.5
2022-11-13T02:38:14.000Z,274.51
2022-11-13T02:40:21.000Z,274.5
2022-11-13T02:41:47.000Z,274.46
2022-11-13T02:43:53.000Z,274.44
2022-11-13T02:46:44.000Z,274.4
2022-11-13T02:48:11.000Z,274.39
2022-11-13T02:50:17.000Z,274.38
2022-11-13T02:51:43.000Z,274.36
2022-11-13T02:53:49.000Z,274.38
2022-11-13T02:55:16.000Z,274.38
2022-11-13T02:57:22.000Z,274.36
2022-11-13T02:58:49.000Z,274.32
2022-11-13T03:00:55.000Z,274.29
2022-11-13T03:02:21.000Z,274.24
2022-11-13T03:04:27.000Z,274.22
2022-11-13T03:06:31.000Z,274.22
2022-11-13T03:08:37.000Z,274.24
2022-11-13T03:10:04.000Z,274.22
2022-11-13T03:12:10.000Z,274.22
2022-11-13T03:13:37.000Z,274.24
2022-11-13T03:15:43.000Z,274.26
2022-11-13T03:17:10.000Z,274.26
2022-11-13T03:19:16.000Z,274.28
2022-11-13T03:20:42.000Z,274.28
2022-11-13T03:22:48.000Z,274.29
2022-11-13T03:25:40.000Z,274.26
2022-11-13T03:27:06.000Z,274.26
2022-11-13T03:29:12.000Z,274.28
2022-11-13T03:30:39.000Z,274.28
2022-11-13T03:32:45.000Z,274.26
2022-11-13T03:34:11.000Z,274.29
2022-11-13T03:36:18.000Z,274.28
2022-11-13T03:37:44.000Z,274.28
2022-11-13T03:39:50.000Z,274.25
2022-11-13T03:41:17.000Z,274.25
2022-11-13T03:43:23.000Z,274.25
2022-11-13T03:44:49.000Z,274.24
2022-11-13T03:46:55.000Z,274.25
2022-11-13T03:48:22.000Z,274.25
2022-11-13T03:50:28.000Z,274.26
2022-11-13T03:51:54.000Z,274.26
2022-11-13T03:54:01.000Z,274.28
2022-11-13T03:55:27.000Z,274.24
2022-11-13T03:57:33.000Z,274.21
2022-11-13T03:59:00.000Z,274.21
2022-11-13T04:01:06.000Z,274.18
2022-11-13T04:03:57.000Z,274.18
2022-11-13T04:05:24.000Z,274.17
2022-11-13T04:07:30.000Z,274.18
2022-11-13T04:08:56.000Z,274.19
2022-11-13T04:11:02.000Z,274.19
2022-11-13T04:12:29.000Z,274.21
2022-11-13T04:14:35.000Z,274.22
2022-11-13T04:16:01.000Z,274.26
2022-11-13T04:18:08.000Z,274.29
2022-11-13T04:19:34.000Z,274.31
2022-11-13T04:21:40.000Z,274.35
2022-11-13T04:23:07.000Z,274.36
2022-11-13T04:25:13.000Z,274.36
2022-11-13T04:26:39.000Z,274.35
2022-11-13T04:28:45.000Z,274.33
2022-11-13T04:30:12.000Z,274.33
2022-11-13T04:32:18.000Z,274.33
2022-11-13T04:33:44.000Z,274.33
2022-11-13T04:35:50.000Z,274.32
2022-11-13T04:37:17.000Z,274.31
2022-11-13T04:39:23.000Z,274.29
2022-11-13T04:42:14.000Z,274.29
2022-11-13T04:43:41.000Z,274.31
2022-11-13T04:45:47.000Z,274.35
2022-11-13T04:47:13.000Z,274.38
2022-11-13T04:49:20.000Z,274.39
2022-11-13T04:50:46.000Z,274.39
2022-11-13T04:52:52.000Z,274.39
2022-11-13T04:54:19.000Z,274.4
2022-11-13T04:56:30.000Z,274.4
2022-11-13T04:57:56.000Z,274.39
2022-11-13T05:00:02.000Z,274.4
2022-11-13T05:01:29.000Z,274.4
2022-11-13T05:03:35.000Z,274.39
2022-11-13T05:05:02.000Z,274.39
2022-11-13T05:07:11.000Z,274.35
2022-11-13T05:08:38.000Z,274.31
2022-11-13T05:10:44.000Z,274.31
2022-11-13T05:12:10.000Z,274.29
2022-11-13T05:14:16.000Z,274.29
2022-11-13T05:15:43.000Z,274.25
2022-11-13T05:17:49.000Z,274.26
2022-11-13T05:20:40.000Z,274.24
2022-11-13T05:22:06.000Z,274.25
2022-11-13T05:24:12.000Z,274.24
2022-11-13T05:25:39.000Z,274.25
2022-11-13T05:27:45.000Z,274.24
2022-11-13T05:29:12.000Z,274.22
2022-11-13T05:31:18.000Z,274.19
2022-11-13T05:32:44.000Z,274.19
2022-11-13T05:34:50.000Z,274.17
2022-11-13T05:36:17.000Z,274.18
2022-11-13T05:38:23.000Z,274.15
2022-11-13T05:39:49.000Z,274.14
2022-11-13T05:41:56.000Z,274.14
2022-11-13T05:43:22.000Z,274.14
2022-11-13T05:45:28.000Z,274.12
2022-11-13T05:46:55.000Z,274.12
2022-11-13T05:49:01.000Z,274.11
2022-11-13T05:50:27.000Z,274.08
2022-11-13T05:52:33.000Z,274.1
2022-11-13T05:54:00.000Z,274.08
2022-11-13T05:56:06.000Z,274.07
2022-11-13T05:58:57.000Z,274.07
2022-11-13T06:00:24.000Z,274.06
2022-11-13T06:02:30.000Z,274.04
2022-11-13T06:03:56.000Z,274.03
2022-11-13T06:06:02.000Z,274.01
2022-11-13T06:07:29.000Z,274
2022-11-13T06:09:35.000Z,273.94
2022-11-13T06:11:01.000Z,273.92
2022-11-13T06:13:08.000Z,273.92
2022-11-13T06:14:34.000Z,273.88
2022-11-13T06:16:40.000Z,273.88
2022-11-13T06:18:07.000Z,273.88
2022-11-13T06:20:13.000Z,273.88
2022-11-13T06:21:39.000Z,273.9
2022-11-13T06:23:45.000Z,273.9
2022-11-13T06:25:12.000Z,273.9
2022-11-13T06:27:18.000Z,273.9
2022-11-13T06:28:45.000Z,273.88
2022-11-13T06:30:51.000Z,273.86
2022-11-13T06:32:17.000Z,273.85
2022-11-13T06:34:23.000Z,273.84
2022-11-13T06:37:15.000Z,273.84
2022-11-13T06:38:41.000Z,273.79
2022-11-13T06:40:47.000Z,273.79
2022-11-13T06:42:14.000Z,273.84
2022-11-13T06:44:20.000Z,273.82
2022-11-13T06:45:46.000Z,273.84
2022-11-13T06:47:53.000Z,273.84
2022-11-13T06:49:19.000Z,273.85
2022-11-13T06:51:25.000Z,273.86
2022-11-13T06:52:52.000Z,273.85
2022-11-13T06:54:58.000Z,273.85
2022-11-13T06:56:24.000Z,273.82
2022-11-13T06:58:30.000Z,273.82
2022-11-13T06:59:58.000Z,273.85
2022-11-13T07:02:04.000Z,273.85
2022-11-13T07:03:31.000Z,273.82
2022-11-13T07:05:37.000Z,273.84
2022-11-13T07:07:03.000Z,273.84
2022-11-13T07:09:10.000Z,273.84
2022-11-13T07:10:36.000Z,273.86
2022-11-13T07:12:42.000Z,273.85
2022-11-13T07:15:33.000Z,273.85
2022-11-13T07:17:00.000Z,273.86
2022-11-13T07:19:16.000Z,273.86
2022-11-13T07:20:43.000Z,273.88
2022-11-13T07:22:49.000Z,273.9
2022-11-13T07:24:15.000Z,273.92
2022-11-13T07:26:23.000Z,273.9
2022-11-13T07:27:49.000Z,273.88
2022-11-13T07:29:56.000Z,273.88
2022-11-13T07:31:29.000Z,273.85
2022-11-13T07:33:35.000Z,273.85
2022-11-13T07:35:02.000Z,273.85
2022-11-13T07:37:08.000Z,273.88
2022-11-13T07:38:34.000Z,273.92
2022-11-13T07:40:40.000Z,273.92
2022-11-13T07:42:07.000Z,273.93
2022-11-13T07:44:13.000Z,273.92
2022-11-13T07:46:06.000Z,273.9
2022-11-13T07:48:12.000Z,273.85
2022-11-13T07:49:39.000Z,273.79
2022-11-13T07:51:45.000Z,273.78
2022-11-13T07:54:36.000Z,273.77
2022-11-13T07:56:03.000Z,273.74
2022-11-13T07:58:09.000Z,273.71
2022-11-13T07:59:35.000Z,273.67
2022-11-13T08:01:41.000Z,273.68
2022-11-13T08:03:08.000Z,273.63
2022-11-13T08:05:14.000Z,273.67
2022-11-13T08:06:40.000Z,273.7
2022-11-13T08:08:46.000Z,273.7
2022-11-13T08:10:13.000Z,273.71
2022-11-13T08:12:19.000Z,273.73
2022-11-13T08:13:46.000Z,273.75
2022-11-13T08:15:52.000Z,273.74
2022-11-13T08:17:18.000Z,273.78
2022-11-13T08:19:24.000Z,273.82
2022-11-13T08:20:51.000Z,273.85
2022-11-13T08:22:57.000Z,273.85
2022-11-13T08:24:24.000Z,273.84
2022-11-13T08:26:30.000Z,273.82
2022-11-13T08:27:56.000Z,273.85
2022-11-13T08:30:03.000Z,273.86
2022-11-13T08:32:54.000Z,273.94
2022-11-13T08:34:20.000Z,274
2022-11-13T08:36:26.000Z,274.06
2022-11-13T08:37:53.000Z,274.14
2022-11-13T08:39:59.000Z,274.19
2022-11-13T08:41:26.000Z,274.28
2022-11-13T08:43:32.000Z,274.36
2022-11-13T08:44:59.000Z,274.43
2022-11-13T08:47:05.000Z,274.47
2022-11-13T08:48:32.000Z,274.51
2022-11-13T08:50:38.000Z,274.59
2022-11-13T08:52:04.000Z,274.65
2022-11-13T08:54:10.000Z,274.71
2022-11-13T08:55:37.000Z,274.77
2022-11-13T08:57:43.000Z,274.8
2022-11-13T08:59:10.000Z,274.85
2022-11-13T09:01:16.000Z,274.85
2022-11-13T09:02:42.000Z,274.9
2022-11-13T09:04:48.000Z,274.92
2022-11-13T09:06:15.000Z,274.97
2022-11-13T09:08:21.000Z,274.99
2022-11-13T09:11:12.000Z,275.09
2022-11-13T09:12:38.000Z,275.1
2022-11-13T09:14:44.000Z,275.12
2022-11-13T09:16:11.000Z,275.19
2022-11-13T09:18:17.000Z,275.27
2022-11-13T09:19:44.000Z,275.3
2022-11-13T09:21:50.000Z,275.35
2022-11-13T09:23:16.000Z,275.39
2022-11-13T09:25:22.000Z,275.46
2022-11-13T09:26:49.000Z,275.52
2022-11-13T09:28:55.000Z,275.55
2022-11-13T09:30:22.000Z,275.6
2022-11-13T09:32:28.000Z,275.67
2022-11-13T09:33:54.000Z,275.69
2022-11-13T09:36:00.000Z,275.73
2022-11-13T09:37:27.000Z,275.74
2022-11-13T09:39:33.000Z,275.8
2022-11-13T09:41:00.000Z,275.82
2022-11-13T09:43:06.000Z,275.84
2022-11-13T09:44:32.000Z,275.85
2022-11-13T09:46:38.000Z,275.89
2022-11-13T09:49:30.000Z,275.96
2022-11-13T09:50:56.000Z,276
2022-11-13T09:53:02.000Z,276.03
2022-11-13T09:54:29.000Z,276.08
2022-11-13T09:56:35.000Z,276.13
2022-11-13T09:58:02.000Z,276.21
2022-11-13T10:00:08.000Z,276.23
2022-11-13T10:01:34.000Z,276.26
2022-11-13T10:03:40.000Z,276.26
2022-11-13T10:05:27.000Z,276.35
2022-11-13T10:07:33.000Z,276.36
2022-11-13T10:08:59.000Z,276.39
2022-11-13T10:11:05.000Z,276.4
2022-11-13T10:12:32.000Z,276.48
2022-11-13T10:14:38.000Z,276.51
2022-11-13T10:16:05.000Z,276.57
2022-11-13T10:18:11.000Z,276.64
2022-11-13T10:19:37.000Z,276.66
2022-11-13T10:21:43.000Z,276.72
2022-11-13T10:23:10.000Z,276.74
2022-11-13T10:25:16.000Z,276.74
2022-11-13T10:28:07.000Z,276.83
2022-11-13T10:30:09.000Z,276.93
2022-11-13T10:32:16.000Z,276.99
2022-11-13T10:33:42.000Z,277.04
2022-11-13T10:35:48.000Z,277.06
2022-11-13T10:37:15.000Z,277.09
2022-11-13T10:39:21.000Z,277.18
2022-11-13T10:40:47.000Z,277.29
2022-11-13T10:42:54.000Z,277.3
2022-11-13T10:44:20.000Z,277.33
2022-11-13T10:46:26.000Z,277.36
2022-11-13T10:47:53.000Z,277.38
2022-11-13T10:50:10.000Z,277.51
2022-11-13T10:51:37.000Z,277.6
2022-11-13T10:53:43.000Z,277.65
2022-11-13T10:55:09.000Z,277.64
2022-11-13T10:57:15.000Z,277.68
2022-11-13T10:58:42.000Z,277.68
2022-11-13T11:00:48.000Z,277.68
2022-11-13T11:02:15.000Z,277.72
2022-11-13T11:04:21.000Z,277.79
2022-11-13T11:07:12.000Z,277.89
2022-11-13T11:08:47.000Z,277.93
2022-11-13T11:10:53.000Z,277.93
2022-11-13T11:12:19.000Z,277.97
2022-11-13T11:14:30.000Z,277.97
2022-11-13T11:15:56.000Z,277.97
2022-11-13T11:18:02.000Z,278.11
2022-11-13T11:19:29.000Z,278.2
2022-11-13T11:21:35.000Z,278.3
2022-11-13T11:23:02.000Z,278.37
2022-11-13T11:25:08.000Z,278.46
2022-11-13T11:26:34.000Z,278.46
2022-11-13T11:28:40.000Z,278.43
2022-11-13T11:30:07.000Z,278.51
2022-11-13T11:32:13.000Z,278.65
2022-11-13T11:33:39.000Z,278.76
2022-11-13T11:35:46.000Z,278.81
2022-11-13T11:37:12.000Z,278.88
2022-11-13T11:39:18.000Z,278.83
2022-11-13T11:40:45.000Z,278.86
2022-11-13T11:42:51.000Z,278.89
2022-11-13T11:45:42.000Z,279.28
2022-11-13T11:47:08.000Z,279.49
2022-11-13T11:49:14.000Z,279.59
2022-11-13T11:50:41.000Z,279.69
2022-11-13T11:52:47.000Z,279.66
2022-11-13T11:54:13.000Z,279.66
2022-11-13T11:56:20.000Z,279.65
2022-11-13T11:57:46.000Z,279.74
2022-11-13T11:59:52.000Z,279.74
2022-11-13T12:01:19.000Z,279.72
2022-11-13T12:03:25.000Z,279.67
2022-11-13T12:04:51.000Z,279.66
2022-11-13T12:06:58.000Z,279.7
2022-11-13T12:08:24.000Z,279.86
2022-11-13T12:10:30.000Z,279.98
2022-11-13T12:11:57.000Z,280.12
2022-11-13T12:14:03.000Z,280.12
2022-11-13T12:15:29.000Z,280.12
2022-11-13T12:17:35.000Z,280.1
2022-11-13T12:19:02.000Z,280.16
2022-11-13T12:21:08.000Z,280.17
2022-11-13T12:23:59.000Z,280.34
2022-11-13T12:25:26.000Z,280.34
2022-11-13T12:27:32.000Z,280.35
2022-11-13T12:28:59.000Z,280.38
2022-11-13T12:31:05.000Z,280.3
2022-11-13T12:32:31.000Z,280.24
2022-11-13T12:34:37.000Z,280.2
2022-11-13T12:36:04.000Z,280.23
2022-11-13T12:38:10.000Z,280.25
2022-11-13T12:39:36.000Z,280.3
2022-11-13T12:41:42.000Z,280.42
2022-11-13T12:43:09.000Z,280.47
2022-11-13T12:45:15.000Z,280.51
2022-11-13T12:46:42.000Z,280.61
2022-11-13T12:48:48.000Z,280.64
2022-11-13T12:50:14.000Z,280.71
2022-11-13T12:52:20.000Z,280.87
2022-11-13T12:53:47.000Z,280.97
2022-11-13T12:55:53.000Z,281.03
2022-11-13T12:57:19.000Z,280.98
2022-11-13T12:59:26.000Z,281.08
2022-11-13T13:02:22.000Z,281.12
2022-11-13T13:03:49.000Z,281.15
2022-11-13T13:05:55.000Z,281.22
2022-11-13T13:07:22.000Z,281.15
2022-11-13T13:09:28.000Z,281.16
2022-11-13T13:10:54.000Z,281.14
2022-11-13T13:13:00.000Z,281.22
2022-11-13T13:14:27.000Z,281.15
2022-11-13T13:16:33.000Z,281.18
2022-11-13T13:18:00.000Z,281.19
2022-11-13T13:20:06.000Z,281.19
2022-11-13T13:21:32.000Z,281.19
2022-11-13T13:23:38.000Z,281.32
2022-11-13T13:25:05.000Z,281.47
2022-11-13T13:27:11.000Z,281.54
2022-11-13T13:28:37.000Z,281.43
2022-11-13T13:30:43.000Z,281.51
2022-11-13T13:32:10.000Z,281.47
2022-11-13T13:34:21.000Z,281.55
2022-11-13T13:35:48.000Z,281.48
2022-11-13T13:37:54.000Z,281.54
2022-11-13T13:40:45.000Z,281.65
2022-11-13T13:42:12.000Z,281.59
2022-11-13T13:44:18.000Z,281.7
2022-11-13T13:45:44.000Z,281.69
2022-11-13T13:47:50.000Z,281.75
2022-11-13T13:49:17.000Z,281.85
2022-11-13T13:51:23.000Z,281.81
2022-11-13T13:52:49.000Z,281.77
2022-11-13T13:55:01.000Z,281.82
2022-11-13T13:56:28.000Z,281.84
2022-11-13T13:58:34.000Z,281.77
2022-11-13T14:00:01.000Z,281.82
2022-11-13T14:02:07.000Z,281.92
2022-11-13T14:03:33.000Z,281.94
2022-11-13T14:05:40.000Z,282.02
2022-11-13T14:07:06.000Z,282.06
2022-11-13T14:09:12.000Z,282.09
2022-11-13T14:10:39.000Z,282.08
2022-11-13T14:12:45.000Z,282.08
2022-11-13T14:14:11.000Z,282.05
2022-11-13T14:16:17.000Z,281.98
2022-11-13T14:19:08.000Z,281.87
2022-11-13T14:20:35.000Z,281.85
2022-11-13T14:22:41.000Z,281.84
2022-11-13T14:24:08.000Z,281.82
2022-11-13T14:26:14.000Z,281.77
2022-11-13T14:27:40.000Z,281.73
2022-11-13T14:29:46.000Z,281.73
2022-11-13T14:31:13.000Z,281.7
2022-11-13T14:33:19.000Z,281.68
2022-11-13T14:34:45.000Z,281.73
2022-11-13T14:36:51.000Z,281.72
2022-11-13T14:38:18.000Z,281.7
2022-11-13T14:40:24.000Z,281.7
2022-11-13T14:41:50.000Z,281.69
2022-11-13T14:43:57.000Z,281.66
2022-11-13T14:45:23.000Z,281.61
2022-11-13T14:47:29.000Z,281.54
2022-11-13T14:48:56.000Z,281.47
2022-11-13T14:51:02.000Z,281.39
2022-11-13T14:52:28.000Z,281.29
2022-11-13T14:54:34.000Z,281.23
2022-11-13T14:58:04.000Z,281.07
2022-11-13T14:59:30.000Z,281.01
2022-11-13T15:01:36.000Z,280.98
2022-11-13T15:03:03.000Z,280.94
2022-11-13T15:05:09.000Z,280.87
2022-11-13T15:06:36.000Z,280.8
2022-11-13T15:08:42.000Z,280.73
2022-11-13T15:10:08.000Z,280.69
2022-11-13T15:12:14.000Z,280.61
2022-11-13T15:13:41.000Z,280.53
2022-11-13T15:15:47.000Z,280.49
2022-11-13T15:17:13.000Z,280.45
2022-11-13T15:19:19.000Z,280.4
2022-11-13T15:20:46.000Z,280.34
2022-11-13T15:22:52.000Z,280.31
2022-11-13T15:24:19.000Z,280.25
2022-11-13T15:26:25.000Z,280.27
2022-11-13T15:27:51.000Z,280.2
2022-11-13T15:29:57.000Z,280.17
2022-11-13T15:31:24.000Z,280.12
2022-11-13T15:33:30.000Z,280.05
2022-11-13T15:36:22.000Z,279.99
2022-11-13T15:37:48.000Z,279.93
2022-11-13T15:39:54.000Z,279.88
2022-11-13T15:41:21.000Z,279.85
2022-11-13T15:43:27.000Z,279.81
2022-11-13T15:44:54.000Z,279.77
2022-11-13T15:47:00.000Z,279.72
2022-11-13T15:48:27.000Z,279.69
2022-11-13T15:50:33.000Z,279.65
2022-11-13T15:51:59.000Z,279.58
2022-11-13T15:54:05.000Z,279.52
2022-11-13T15:55:32.000Z,279.49
2022-11-13T15:57:38.000Z,279.48
2022-11-13T15:59:05.000Z,279.42
2022-11-13T16:01:11.000Z,279.38
2022-11-13T16:02:37.000Z,279.33
2022-11-13T16:04:44.000Z,279.3
2022-11-13T16:06:23.000Z,279.26
2022-11-13T16:08:29.000Z,279.17
2022-11-13T16:09:55.000Z,279.09
2022-11-13T16:12:01.000Z,279.02
2022-11-13T16:14:52.000Z,278.94
2022-11-13T16:16:19.000Z,278.9
2022-11-13T16:18:25.000Z,278.82
2022-11-13T16:19:51.000Z,278.79
2022-11-13T16:21:58.000Z,278.74
2022-11-13T16:23:24.000Z,278.71
2022-11-13T16:25:30.000Z,278.67
2022-11-13T16:26:57.000Z,278.62
2022-11-13T16:29:03.000Z,278.6
2022-11-13T16:30:40.000Z,278.56
2022-11-13T16:32:46.000Z,278.53
2022-11-13T16:34:12.000Z,278.43
2022-11-13T16:36:18.000Z,278.39
2022-11-13T16:37:45.000Z,278.33
2022-11-13T16:39:51.000Z,278.26
2022-11-13T16:41:18.000Z,278.18
2022-11-13T16:43:24.000Z,278.13
2022-11-13T16:44:50.000Z,278.07
2022-11-13T16:46:56.000Z,278.04
2022-11-13T16:48:23.000Z,278
2022-11-13T16:50:29.000Z,277.97
2022-11-13T16:53:20.000Z,277.93
2022-11-13T16:54:46.000Z,277.91
2022-11-13T16:56:52.000Z,277.86
2022-11-13T16:58:19.000Z,277.85
2022-11-13T17:00:25.000Z,277.82
2022-11-13T17:01:51.000Z,277.78
2022-11-13T17:03:57.000Z,277.72
2022-11-13T17:05:24.000Z,277.7
2022-11-13T17:07:30.000Z,277.67
2022-11-13T17:08:57.000Z,277.65
2022-11-13T17:11:03.000Z,277.61
2022-11-13T17:12:29.000Z,277.59
2022-11-13T17:14:36.000Z,277.56
2022-11-13T17:16:02.000Z,277.56
2022-11-13T17:18:08.000Z,277.53
2022-11-13T17:19:35.000Z,277.51
2022-11-13T17:21:41.000Z,277.46
2022-11-13T17:23:10.000Z,277.4
2022-11-13T17:25:16.000Z,277.34
2022-11-13T17:26:43.000Z,277.3
2022-11-13T17:28:49.000Z,277.26
2022-11-13T17:31:40.000Z,277.19
2022-11-13T17:33:07.000Z,277.13
2022-11-13T17:35:13.000Z,277.08
2022-11-13T17:36:39.000Z,277.01
2022-11-13T17:38:45.000Z,276.98
2022-11-13T17:40:12.000Z,276.91
2022-11-13T17:42:18.000Z,276.88
2022-11-13T17:43:44.000Z,276.87
2022-11-13T17:45:51.000Z,276.84
2022-11-13T17:47:17.000Z,276.8
2022-11-13T17:49:23.000Z,276.76
2022-11-13T17:50:50.000Z,276.74
2022-11-13T17:52:56.000Z,276.68
2022-11-13T17:54:22.000Z,276.64
2022-11-13T17:56:28.000Z,276.62
2022-11-13T17:57:55.000Z,276.6
2022-11-13T18:00:01.000Z,276.55
2022-11-13T18:01:28.000Z,276.55
2022-11-13T18:03:34.000Z,276.53
2022-11-13T18:05:00.000Z,276.48
2022-11-13T18:07:07.000Z,276.46
2022-11-13T18:09:58.000Z,276.44
2022-11-13T18:11:25.000Z,276.43
2022-11-13T18:13:31.000Z,276.36
2022-11-13T18:14:58.000Z,276.28
2022-11-13T18:17:04.000Z,276.26
2022-11-13T18:18:30.000Z,276.23
2022-11-13T18:20:37.000Z,276.15
2022-11-13T18:22:03.000Z,276.13
2022-11-13T18:24:09.000Z,276.08
2022-11-13T18:25:36.000Z,276.07
2022-11-13T18:27:45.000Z,276.02
2022-11-13T18:29:12.000Z,275.95
2022-11-13T18:31:18.000Z,275.92
2022-11-13T18:32:45.000Z,275.89
2022-11-13T18:34:51.000Z,275.88
2022-11-13T18:36:17.000Z,275.84
2022-11-13T18:38:23.000Z,275.8
2022-11-13T18:39:50.000Z,275.8
2022-11-13T18:41:56.000Z,275.77
2022-11-13T18:43:22.000Z,275.74
2022-11-13T18:45:29.000Z,275.71
2022-11-13T18:48:20.000Z,275.7
2022-11-13T18:49:46.000Z,275.67
2022-11-13T18:51:52.000Z,275.66
2022-11-13T18:53:19.000Z,275.63
2022-11-13T18:55:25.000Z,275.6
2022-11-13T18:56:51.000Z,275.57
2022-11-13T18:58:57.000Z,275.52
2022-11-13T19:00:24.000Z,275.53
2022-11-13T19:02:30.000Z,275.5
2022-11-13T19:03:57.000Z,275.48
2022-11-13T19:06:29.000Z,275.46
2022-11-13T19:07:55.000Z,275.41
2022-11-13T19:10:01.000Z,275.38
2022-11-13T19:11:28.000Z,275.34
2022-11-13T19:13:34.000Z,275.3
2022-11-13T19:15:00.000Z,275.28
2022-11-13T19:17:06.000Z,275.24
2022-11-13T19:18:33.000Z,275.22
2022-11-13T19:20:39.000Z,275.2
2022-11-13T19:22:06.000Z,275.19
2022-11-13T19:24:12.000Z,275.17
2022-11-13T19:27:03.000Z,275.12
2022-11-13T19:28:29.000Z,275.12
2022-11-13T19:30:36.000Z,275.08
2022-11-13T19:32:02.000Z,275.06
2022-11-13T19:34:09.000Z,275.05
2022-11-13T19:35:35.000Z,275.05
2022-11-13T19:37:41.000Z,275.04
2022-11-13T19:39:08.000Z,275.02
2022-11-13T19:41:14.000Z,275.01
2022-11-13T19:42:40.000Z,274.99
2022-11-13T19:44:48.000Z,274.98
2022-11-13T19:46:14.000Z,274.98
2022-11-13T19:48:20.000Z,274.97
2022-11-13T19:49:47.000Z,274.95
2022-11-13T19:51:53.000Z,274.94
2022-11-13T19:53:19.000Z,274.88
2022-11-13T19:55:26.000Z,274.85
2022-11-13T19:56:52.000Z,274.83
2022-11-13T19:58:58.000Z,274.81
2022-11-13T20:00:25.000Z,274.8
2022-11-13T20:02:31.000Z,274.8
2022-11-13T20:05:22.000Z,274.8
2022-11-13T20:06:49.000Z,274.77
2022-11-13T20:08:55.000Z,274.73
2022-11-13T20:10:21.000Z,274.72
2022-11-13T20:12:27.000Z,274.69
2022-11-13T20:13:54.000Z,274.65
2022-11-13T20:16:00.000Z,274.64
2022-11-13T20:17:26.000Z,274.59
2022-11-13T20:19:32.000Z,274.58
2022-11-13T20:20:59.000Z,274.51
2022-11-13T20:23:05.000Z,274.53
2022-11-13T20:24:31.000Z,274.51
2022-11-13T20:26:38.000Z,274.53
2022-11-13T20:28:04.000Z,274.53
2022-11-13T20:30:10.000Z,274.5
2022-11-13T20:31:37.000Z,274.49
2022-11-13T20:33:43.000Z,274.5
2022-11-13T20:35:09.000Z,274.47
2022-11-13T20:37:16.000Z,274.47
2022-11-13T20:38:42.000Z,274.44
2022-11-13T20:40:48.000Z,274.44
2022-11-13T20:43:39.000Z,274.4
2022-11-13T20:45:06.000Z,274.39
2022-11-13T20:47:12.000Z,274.35
2022-11-13T20:48:38.000Z,274.33
2022-11-13T20:50:44.000Z,274.33
2022-11-13T20:52:11.000Z,274.33
2022-11-13T20:54:17.000Z,274.33
2022-11-13T20:55:44.000Z,274.32
2022-11-13T20:57:50.000Z,274.32
2022-11-13T20:59:16.000Z,274.31
2022-11-13T21:01:22.000Z,274.32
2022-11-13T21:02:49.000Z,274.32
2022-11-13T21:04:55.000Z,274.29
2022-11-13T21:06:22.000Z,274.28
2022-11-13T21:08:28.000Z,274.25
2022-11-13T21:09:55.000Z,274.28
2022-11-13T21:12:01.000Z,274.25
2022-11-13T21:13:27.000Z,274.24
2022-11-13T21:15:33.000Z,274.24
2022-11-13T21:17:00.000Z,274.22
2022-11-13T21:19:06.000Z,274.21
2022-11-13T21:21:57.000Z,274.18
2022-11-13T21:23:24.000Z,274.17
2022-11-13T21:25:30.000Z,274.15
2022-11-13T21:26:56.000Z,274.12
2022-11-13T21:29:02.000Z,274.11
2022-11-13T21:30:29.000Z,274.1
2022-11-13T21:32:35.000Z,274.07
2022-11-13T21:34:02.000Z,274.06
2022-11-13T21:36:08.000Z,274.04
2022-11-13T21:37:34.000Z,274
2022-11-13T21:39:40.000Z,273.97
2022-11-13T21:41:07.000Z,273.93
2022-11-13T21:43:13.000Z,273.9
2022-11-13T21:44:39.000Z,273.86
2022-11-13T21:46:45.000Z,273.84
2022-11-13T21:48:12.000Z,273.79
2022-11-13T21:50:18.000Z,273.78
2022-11-13T21:51:45.000Z,273.78
2022-11-13T21:53:51.000Z,273.75
2022-11-13T21:55:17.000Z,273.75
2022-11-13T21:57:24.000Z,273.73
2022-11-13T22:00:15.000Z,273.68
2022-11-13T22:01:42.000Z,273.66
2022-11-13T22:03:48.000Z,273.67
2022-11-13T22:05:14.000Z,273.67
2022-11-13T22:07:20.000Z,273.67
2022-11-13T22:08:47.000Z,273.66
2022-11-13T22:10:53.000Z,273.66
2022-11-13T22:12:20.000Z,273.67
2022-11-13T22:14:26.000Z,273.67
2022-11-13T22:15:52.000Z,273.67
2022-11-13T22:17:58.000Z,273.64
2022-11-13T22:19:25.000Z,273.61
2022-11-13T22:21:36.000Z,273.61
2022-11-13T22:23:02.000Z,273.6
2022-11-13T22:25:08.000Z,273.6
2022-11-13T22:26:35.000Z,273.56
2022-11-13T22:28:41.000Z,273.56
2022-11-13T22:30:07.000Z,273.54
2022-11-13T22:32:13.000Z,273.52
2022-11-13T22:33:40.000Z,273.52
2022-11-13T22:35:53.000Z,273.5
2022-11-13T22:38:44.000Z,273.45
2022-11-13T22:40:11.000Z,273.46
2022-11-13T22:42:14.000Z,273.46
2022-11-13T22:43:41.000Z,273.45
2022-11-13T22:45:47.000Z,273.52
2022-11-13T22:47:14.000Z,273.57
2022-11-13T22:49:20.000Z,273.63
2022-11-13T22:50:46.000Z,273.66
2022-11-13T22:52:52.000Z,273.68
2022-11-13T22:54:19.000Z,273.74
2022-11-13T22:56:25.000Z,273.81